Aérodrome :
LOGIN :

S'inscrire | Disclaimer

   EN    FR    IT 

 










Légende :    VFR   VFR Marginal   IFR   IFR Intensif   IFR Très Intensif
Visi : 
Plafond : 
>= 8 km
>= 3000ft
5 à 8 km
1000 à 3000 ft
1500m à 5 km
500 à 1000 ft
800 à 1500m
200 à 500 ft
< 800m
< 200 ft
Symboles :   Orages  Brouillard  Fortes neiges  Fortes précipitations  Vent > 20 kt
SIGMETs :   Divers  Orages  Givrage  Turbulence  Onde Orograph.  Cendres Volcan.







- Altitude de l'aérodrome : 1460 ft


LSMA - Alpnach

DERNIER METAR :
  • 092350Z AUTO 22006KT 170V280 9999NDV BKN051 07/03 Q1020 RMK

METARs EXPIRÉS :
  • 092320Z AUTO 19010KT 140V280 9999NDV -RA SCT023 BKN027 OVC046 07/02 Q1019 RMK
  • 092250Z AUTO 23007KT 150V280 9999NDV -RA SCT026 OVC031 06/04 Q1019 RMK
  • 092220Z AUTO 22007G19KT 150V270 9999NDV -RA OVC029 07/03 Q1018 RERA RMK
  • 092150Z AUTO 20010KT 150V230 7000NDV RA FEW024 BKN028 OVC039 07/04 Q1017 RMK
  • 092120Z AUTO 19010KT 160V240 9999NDV -RA FEW040 OVC047 07/04 Q1016 RMK

Prévision TAF périmée.
Pas de NOTAMs connus pour ce terrain.



MET'MAP, la Météo Aéronautique d'un coup d'oeil ! - Copyright ORBIFLY Décembre 2007 - Disclaimer

ORBIFLY MET'MAP TEAM :

Programmation & Développement : Alexandra Zaïnal
Conception & Développement : Baudouin d'Aumeries
Co-Programmation & Développement : Marc-Olivier Méhu
Soutien technique & logistique : Manuel Goepfert

Contact : metmap@orbifly.com




SOURCES & CREDITS :

   NOAA